Time;durP1;ratioP1;P1;durP2;ratioP2;P2;SDS_P1;SDS_P2;PMS_P1;PMS_P2;Temp;Humidity;BMP_temperature;BMP_pressure;BME280_temperature;BME280_humidity;BME280_pressure;Samples;Min_cycle;Max_cycle;Signal;HPM_P1;HPM_P2
2020/12/06 00:02:22;;;;;;;26.45;17.85;;;;;;;4.75;74.83;99342.50;4985686;28;20038;-72
2020/12/06 00:04:47;;;;;;;24.35;16.05;;;;;;;4.79;74.47;99338.97;5002442;28;20497;-72
2020/12/06 00:07:12;;;;;;;23.40;16.77;;;;;;;4.77;74.67;99351.22;5003419;28;20389;-70
2020/12/06 00:09:38;;;;;;;25.55;17.73;;;;;;;4.75;75.04;99340.75;5005480;28;20600;-71
2020/12/06 00:12:03;;;;;;;28.02;18.55;;;;;;;4.76;75.04;99324.19;5005504;28;20463;-72
2020/12/06 00:14:28;;;;;;;26.27;18.00;;;;;;;4.74;74.94;99315.50;5002163;28;20497;-73
2020/12/06 00:16:54;;;;;;;24.23;16.77;;;;;;;4.73;75.56;99312.88;5002099;28;20042;-72
2020/12/06 00:19:19;;;;;;;23.77;16.67;;;;;;;4.76;75.11;99313.72;5004147;28;20050;-72
2020/12/06 00:21:45;;;;;;;23.33;16.45;;;;;;;4.74;75.16;99310.25;5005420;28;20116;-71
2020/12/06 00:24:11;;;;;;;24.35;16.45;;;;;;;4.67;75.25;99311.13;5004200;28;20042;-71
2020/12/06 00:26:37;;;;;;;28.30;17.60;;;;;;;4.68;75.02;99310.25;5001599;28;20512;-71
2020/12/06 00:29:02;;;;;;;25.90;18.00;;;;;;;4.65;75.63;99299.81;5001847;28;20129;-70
2020/12/06 00:31:28;;;;;;;24.67;17.05;;;;;;;4.60;75.54;99285.88;5004854;28;20052;-71
2020/12/06 00:33:53;;;;;;;26.60;16.95;;;;;;;4.61;75.49;99288.50;5004924;28;20098;-71
2020/12/06 00:36:18;;;;;;;28.85;17.73;;;;;;;4.58;76.12;99293.75;5003255;28;20030;-71
2020/12/06 00:38:44;;;;;;;23.67;16.50;;;;;;;4.56;76.19;99308.56;5001653;28;20145;-71
2020/12/06 00:41:14;;;;;;;21.42;15.93;;;;;;;4.59;76.16;99290.25;5002312;28;20045;-70
2020/12/06 00:43:40;;;;;;;23.30;16.27;;;;;;;4.61;76.22;99287.63;5004741;28;20030;-72
2020/12/06 00:46:06;;;;;;;22.58;16.17;;;;;;;4.65;75.78;99285.88;5004702;28;20520;-72
2020/12/06 00:48:32;;;;;;;22.05;16.00;;;;;;;4.67;75.67;99285.00;5000145;28;20041;-72
2020/12/06 00:50:58;;;;;;;24.95;17.63;;;;;;;4.68;75.46;99285.88;4976341;28;20039;-72
2020/12/06 00:53:24;;;;;;;25.45;16.48;;;;;;;4.67;75.64;99276.31;4993511;28;20584;-72
2020/12/06 00:55:49;;;;;;;22.15;15.38;;;;;;;4.66;75.73;99271.94;4987280;28;20030;-72
2020/12/06 00:58:15;;;;;;;23.35;17.08;;;;;;;4.63;75.34;99275.41;4985588;28;20034;-71
2020/12/06 01:00:41;;;;;;;20.90;15.32;;;;;;;4.60;75.35;99264.97;5001224;28;20049;-72
2020/12/06 01:03:06;;;;;;;27.23;16.15;;;;;;;4.54;75.16;99255.41;5001155;28;20031;-72
2020/12/06 01:05:32;;;;;;;22.77;15.68;;;;;;;4.48;75.42;99262.38;4987028;28;20029;-73
2020/12/06 01:07:57;;;;;;;22.30;15.05;;;;;;;4.43;75.61;99261.53;5003228;28;20112;-71
2020/12/06 01:10:25;;;;;;;23.88;16.95;;;;;;;4.38;75.38;99272.88;5001959;28;20030;-72
2020/12/06 01:12:50;;;;;;;23.52;16.35;;;;;;;4.35;75.26;99266.78;5000853;28;20497;-71
2020/12/06 01:15:16;;;;;;;19.52;13.95;;;;;;;4.31;75.20;99268.50;5002585;28;20069;-71
2020/12/06 01:17:41;;;;;;;22.15;16.65;;;;;;;4.28;75.74;99265.91;4986900;28;20034;-71
2020/12/06 01:20:07;;;;;;;23.33;16.35;;;;;;;4.32;76.21;99274.59;5003961;28;20681;-71
2020/12/06 01:22:34;;;;;;;23.80;17.20;;;;;;;4.33;76.13;99277.22;5000734;28;20034;-71
2020/12/06 01:24:59;;;;;;;22.70;16.45;;;;;;;4.35;76.17;99275.50;5000865;28;20046;-72
2020/12/06 01:27:24;;;;;;;23.80;16.35;;;;;;;4.35;76.52;99278.09;5003563;28;20041;-71
2020/12/06 01:29:50;;;;;;;25.60;16.58;;;;;;;4.30;77.36;99282.44;5004049;28;20038;-71
2020/12/06 01:32:15;;;;;;;25.38;17.08;;;;;;;4.22;78.12;99267.63;5002436;28;20165;-71
2020/12/06 01:34:40;;;;;;;22.55;15.95;;;;;;;4.16;77.87;99265.91;4977112;28;20505;-71
2020/12/06 01:37:06;;;;;;;24.08;17.25;;;;;;;4.14;78.14;99265.06;5000620;28;20037;-71
2020/12/06 01:39:31;;;;;;;23.80;16.90;;;;;;;4.19;78.02;99265.91;4999843;28;20049;-71
2020/12/06 01:41:57;;;;;;;23.92;17.27;;;;;;;4.25;77.92;99260.69;5000494;28;20053;-71
2020/12/06 01:44:26;;;;;;;23.88;16.20;;;;;;;4.28;77.46;99252.84;5002624;28;20050;-72
2020/12/06 01:46:53;;;;;;;22.23;16.20;;;;;;;4.30;77.58;99242.41;5003891;28;20083;-72
2020/12/06 01:49:20;;;;;;;19.10;14.02;;;;;;;4.33;77.45;99227.59;5001890;28;20034;-71
2020/12/06 01:51:51;;;;;;;24.08;16.50;;;;;;;4.31;77.49;99224.09;5000389;28;20042;-70
2020/12/06 01:54:16;;;;;;;24.42;15.70;;;;;;;4.33;77.47;99219.75;5001684;28;20034;-71
2020/12/06 01:56:41;;;;;;;22.55;15.82;;;;;;;4.32;77.45;99223.25;5002824;28;20034;-71
2020/12/06 01:59:07;;;;;;;22.55;15.85;;;;;;;4.34;77.51;99225.84;5000464;28;20497;-71
2020/12/06 02:01:32;;;;;;;22.63;15.35;;;;;;;4.33;77.39;99209.31;4986182;28;20045;-72
2020/12/06 02:03:57;;;;;;;23.17;17.23;;;;;;;4.34;77.56;99210.16;5003370;28;20068;-71
2020/12/06 02:06:23;;;;;;;23.40;16.67;;;;;;;4.31;77.50;99213.66;5001371;28;20030;-72
2020/12/06 02:08:49;;;;;;;22.15;16.10;;;;;;;4.31;77.58;99226.72;5000013;28;20497;-72
2020/12/06 02:11:36;;;;;;;22.70;15.68;;;;;;;4.27;76.94;99225.00;5001403;28;20513;-72
2020/12/06 02:14:02;;;;;;;25.15;17.45;;;;;;;4.27;77.31;99225.00;5003313;28;20107;-71
2020/12/06 02:16:27;;;;;;;23.67;16.33;;;;;;;4.29;77.65;99222.38;5000377;28;20042;-71
2020/12/06 02:18:53;;;;;;;23.10;16.80;;;;;;;4.31;77.55;99216.28;4999800;28;20053;-72
2020/12/06 02:21:18;;;;;;;23.10;16.33;;;;;;;4.34;77.96;99218.88;5001782;28;20041;-72
2020/12/06 02:23:43;;;;;;;25.90;18.67;;;;;;;4.31;78.57;99213.66;5003310;28;20069;-71
2020/12/06 02:26:09;;;;;;;27.23;19.25;;;;;;;4.32;78.07;99214.53;5002661;28;20044;-71
2020/12/06 02:28:34;;;;;;;23.27;17.48;;;;;;;4.31;78.47;99210.19;4999837;28;20038;-71
2020/12/06 02:30:59;;;;;;;24.95;17.75;;;;;;;4.32;78.39;99212.81;4999959;28;20476;-72
2020/12/06 02:33:25;;;;;;;24.48;17.83;;;;;;;4.36;78.08;99198.84;5002254;28;20504;-71
2020/12/06 02:35:50;;;;;;;30.70;20.40;;;;;;;4.37;78.27;99200.56;4985711;28;20109;-72
2020/12/06 02:38:15;;;;;;;23.75;17.48;;;;;;;4.36;78.57;99198.84;5001635;28;20508;-71
2020/12/06 02:40:41;;;;;;;25.38;16.73;;;;;;;4.41;79.08;99197.97;4999665;28;20057;-72
2020/12/06 02:43:06;;;;;;;22.67;17.38;;;;;;;4.47;78.58;99192.72;4999621;28;20042;-71
2020/12/06 02:45:31;;;;;;;23.40;15.60;;;;;;;4.51;78.13;99203.16;5003183;28;20041;-71
2020/12/06 02:47:57;;;;;;;21.98;16.42;;;;;;;4.52;77.78;99190.97;5003058;28;20042;-71
2020/12/06 02:50:22;;;;;;;25.23;17.20;;;;;;;4.55;78.05;99183.13;5002630;28;20515;-72
2020/12/06 02:52:47;;;;;;;27.27;17.40;;;;;;;4.57;78.37;99186.59;5003494;28;20042;-72
2020/12/06 02:55:13;;;;;;;24.73;16.65;;;;;;;4.60;78.19;99187.44;5004715;28;20038;-71
2020/12/06 02:57:38;;;;;;;25.20;17.00;;;;;;;4.64;77.77;99187.44;5007060;28;20046;-71
2020/12/06 03:00:04;;;;;;;23.30;16.75;;;;;;;4.63;77.59;99186.56;5006943;28;20087;-71
2020/12/06 03:02:29;;;;;;;21.75;15.32;;;;;;;4.61;77.95;99189.22;5005355;28;20116;-72
2020/12/06 03:04:54;;;;;;;21.63;15.68;;;;;;;4.59;77.60;99192.69;5010947;28;20034;-72
2020/12/06 03:07:20;;;;;;;22.50;15.52;;;;;;;4.55;77.46;99194.44;5011268;28;20033;-72
2020/12/06 03:09:45;;;;;;;21.80;15.40;;;;;;;4.52;77.60;99191.84;5011389;28;20038;-72
2020/12/06 03:12:10;;;;;;;20.92;14.77;;;;;;;4.50;77.56;99190.09;4986602;28;20049;-72
2020/12/06 03:14:36;;;;;;;22.63;15.82;;;;;;;4.51;77.74;99179.66;5006831;28;20021;-72
2020/12/06 03:17:01;;;;;;;21.42;15.25;;;;;;;4.49;77.61;99180.53;5006751;28;20038;-71
2020/12/06 03:19:26;;;;;;;22.10;15.75;;;;;;;4.46;77.32;99186.63;5003418;28;20078;-72
2020/12/06 03:21:52;;;;;;;22.98;14.82;;;;;;;4.46;77.64;99183.16;5003160;28;20049;-72
2020/12/06 03:24:17;;;;;;;24.58;16.55;;;;;;;4.44;77.68;99185.78;5004648;28;20046;-72
2020/12/06 03:26:42;;;;;;;22.70;15.00;;;;;;;4.46;77.58;99178.81;5006676;28;20042;-72
2020/12/06 03:29:08;;;;;;;20.48;15.02;;;;;;;4.46;77.42;99157.03;5005989;28;20049;-72
2020/12/06 03:31:33;;;;;;;19.35;13.75;;;;;;;4.47;77.88;99154.41;5003108;28;20054;-72
2020/12/06 03:33:58;;;;;;;18.60;14.93;;;;;;;4.46;77.69;99154.44;4981072;28;20034;-72
2020/12/06 03:36:23;;;;;;;19.23;14.57;;;;;;;4.44;77.86;99164.00;5002919;28;20038;-72
2020/12/06 03:38:49;;;;;;;18.67;14.02;;;;;;;4.39;77.61;99149.19;5002874;28;20049;-72
2020/12/06 03:41:14;;;;;;;24.40;15.35;;;;;;;4.40;78.03;99152.69;4986566;28;20038;-72
2020/12/06 03:43:39;;;;;;;19.83;14.20;;;;;;;4.41;77.65;99158.78;4988460;28;20148;-72
2020/12/06 03:46:05;;;;;;;22.23;15.10;;;;;;;4.43;78.06;99167.47;5006186;28;20120;-72
2020/12/06 03:48:30;;;;;;;23.52;14.75;;;;;;;4.41;77.86;99148.34;5000831;28;20116;-72
2020/12/06 03:50:55;;;;;;;20.23;13.95;;;;;;;4.38;77.68;99155.31;4988732;28;20045;-72
2020/12/06 03:53:21;;;;;;;23.50;15.43;;;;;;;4.35;77.95;99160.56;5003661;28;20041;-71
2020/12/06 03:55:46;;;;;;;20.77;15.23;;;;;;;4.33;77.74;99153.59;5002715;28;20038;-71
2020/12/06 03:58:11;;;;;;;19.35;13.57;;;;;;;4.29;77.65;99155.31;5003387;28;20046;-71
2020/12/06 04:00:36;;;;;;;19.85;14.70;;;;;;;4.30;77.88;99157.09;5005838;28;20041;-71
2020/12/06 04:03:02;;;;;;;23.02;14.85;;;;;;;4.30;77.88;99144.03;5004784;28;20034;-71
2020/12/06 04:05:27;;;;;;;22.17;14.20;;;;;;;4.30;78.22;99138.81;5002691;28;20053;-71
2020/12/06 04:07:52;;;;;;;22.05;15.02;;;;;;;4.28;78.28;99127.47;5001944;28;20038;-72
2020/12/06 04:10:18;;;;;;;19.15;13.50;;;;;;;4.31;78.87;99121.38;5003926;28;20038;-72
2020/12/06 04:12:45;;;;;;;20.58;13.70;;;;;;;4.30;78.26;99115.28;5005544;28;20030;-72
2020/12/06 04:15:10;;;;;;;19.35;13.00;;;;;;;4.30;78.32;99115.28;5004932;28;20404;-72
2020/12/06 04:17:36;;;;;;;19.40;13.88;;;;;;;4.32;78.53;99129.22;4984744;28;20041;-71
2020/12/06 04:20:03;;;;;;;19.83;14.05;;;;;;;4.28;78.21;99122.25;5006023;28;20069;-71
2020/12/06 04:22:28;;;;;;;24.70;17.05;;;;;;;4.29;78.12;99130.97;5013263;28;20124;-72
2020/12/06 04:24:54;;;;;;;21.17;14.75;;;;;;;4.25;78.37;99122.28;5015211;28;20089;-71
2020/12/06 04:27:19;;;;;;;21.02;13.20;;;;;;;4.26;78.56;99125.75;5014783;28;20057;-72
2020/12/06 04:29:44;;;;;;;21.92;14.32;;;;;;;4.24;78.60;99123.13;5001909;28;20140;-72
2020/12/06 04:32:10;;;;;;;20.77;14.02;;;;;;;4.23;78.73;99113.56;4997815;28;20030;-72
2020/12/06 04:34:36;;;;;;;21.00;13.85;;;;;;;4.26;78.88;99113.56;5001893;28;20494;-72
2020/12/06 04:37:06;;;;;;;19.50;13.82;;;;;;;4.27;79.13;99107.47;5001963;28;20044;-72
2020/12/06 04:39:32;;;;;;;18.38;13.38;;;;;;;4.30;79.09;99114.44;5001746;28;20046;-72
2020/12/06 04:41:59;;;;;;;19.15;13.88;;;;;;;4.30;79.02;99107.47;5001788;28;20431;-72
2020/12/06 04:44:25;;;;;;;19.67;13.55;;;;;;;4.31;79.42;99096.13;5003940;28;20034;-72
2020/12/06 04:46:58;;;;;;;21.02;15.20;;;;;;;4.30;79.02;99099.63;5005055;28;20485;-71
2020/12/06 04:49:52;;;;;;;18.92;13.27;;;;;;;4.26;79.99;99103.09;4984762;28;20136;-72
2020/12/06 04:52:19;;;;;;;20.70;14.15;;;;;;;4.27;79.24;99103.97;5001313;28;20046;-71
2020/12/06 04:54:58;;;;;;;22.88;15.00;;;;;;;4.24;79.76;99117.91;5004906;28;20404;-72
2020/12/06 04:57:23;;;;;;;21.02;14.70;;;;;;;4.24;79.61;99114.44;5002471;28;20068;-72
2020/12/06 04:59:52;;;;;;;23.08;14.68;;;;;;;4.22;79.56;99122.28;5001422;28;20405;-72
2020/12/06 05:02:19;;;;;;;20.40;14.82;;;;;;;4.23;79.93;99118.78;5002676;28;20046;-72
2020/12/06 05:04:47;;;;;;;18.42;13.63;;;;;;;4.23;79.82;99118.78;5004437;28;20042;-72
2020/12/06 05:07:15;;;;;;;21.42;15.93;;;;;;;4.18;80.01;99108.34;5003723;28;20092;-72
2020/12/06 05:09:43;;;;;;;21.08;15.13;;;;;;;4.17;80.03;99118.81;5001213;28;20045;-72
2020/12/06 05:12:08;;;;;;;20.38;13.05;;;;;;;4.17;79.73;99117.06;5001330;28;20042;-72
2020/12/06 05:14:34;;;;;;;19.10;15.15;;;;;;;4.10;79.83;99114.47;5003444;28;20069;-72
2020/12/06 05:17:00;;;;;;;19.63;14.20;;;;;;;4.05;79.90;99111.00;5004469;28;20088;-71
2020/12/06 05:19:27;;;;;;;20.42;13.38;;;;;;;4.05;80.17;99114.47;5001392;28;20049;-71
2020/12/06 05:21:53;;;;;;;18.02;13.27;;;;;;;4.07;80.51;99110.13;5001005;28;20040;-72
2020/12/06 05:24:18;;;;;;;19.38;13.85;;;;;;;4.07;80.33;99110.13;5002417;28;20030;-71
2020/12/06 05:26:44;;;;;;;18.00;13.48;;;;;;;4.06;79.86;99111.03;4986813;28;20042;-72
2020/12/06 05:29:09;;;;;;;21.48;14.15;;;;;;;4.07;79.90;99107.53;5003596;28;20041;-71
2020/12/06 05:31:34;;;;;;;19.48;13.75;;;;;;;4.02;80.56;99111.03;5000871;28;20040;-72
2020/12/06 05:34:00;;;;;;;24.95;14.88;;;;;;;4.05;80.76;99105.78;5000555;28;20453;-72
2020/12/06 05:36:25;;;;;;;19.08;14.55;;;;;;;4.05;80.30;99108.41;5003361;28;20123;-72
2020/12/06 05:38:51;;;;;;;19.33;13.52;;;;;;;4.07;80.21;99112.75;5004006;28;20452;-72
2020/12/06 05:41:17;;;;;;;20.02;14.38;;;;;;;4.05;80.33;99111.00;5002536;28;20451;-71
2020/12/06 05:43:42;;;;;;;20.92;13.63;;;;;;;4.06;80.27;99110.13;4976434;28;20031;-72
2020/12/06 05:46:12;;;;;;;18.73;12.73;;;;;;;4.06;80.80;99107.50;5002696;28;20040;-72
2020/12/06 05:48:39;;;;;;;19.48;14.07;;;;;;;4.06;80.77;99107.50;4997668;28;20045;-71
2020/12/06 05:51:05;;;;;;;19.02;14.20;;;;;;;4.03;81.29;99118.84;5003314;28;20053;-72
2020/12/06 05:53:31;;;;;;;20.80;14.70;;;;;;;4.04;81.25;99102.31;5000210;28;20562;-71
2020/12/06 05:56:15;;;;;;;18.55;14.38;;;;;;;3.91;81.69;99103.22;5005726;28;20138;-71
2020/12/06 05:58:42;;;;;;;22.02;16.15;;;;;;;3.97;81.55;99102.34;5000320;28;20492;-71
2020/12/06 06:01:10;;;;;;;19.67;14.32;;;;;;;4.02;81.78;99092.75;5000610;28;20046;-72
2020/12/06 06:03:36;;;;;;;20.77;13.75;;;;;;;4.08;81.28;99101.41;5003419;28;20117;-72
2020/12/06 06:06:04;;;;;;;20.38;14.80;;;;;;;4.13;80.94;99101.41;5003648;28;20034;-72
2020/12/06 06:08:30;;;;;;;20.92;14.25;;;;;;;4.14;81.07;99109.25;5000382;28;20042;-71
2020/12/06 06:11:19;;;;;;;18.40;14.70;;;;;;;4.15;81.15;99104.91;5000159;28;20038;-72
2020/12/06 06:13:53;;;;;;;20.75;12.75;;;;;;;4.17;80.72;99113.59;4996890;28;20086;-72
2020/12/06 06:16:20;;;;;;;21.75;16.05;;;;;;;4.20;80.78;99108.38;5001800;28;20038;-72
2020/12/06 06:18:48;;;;;;;21.27;15.27;;;;;;;4.23;80.69;99105.72;5003285;28;20401;-72
2020/12/06 06:21:16;;;;;;;20.20;13.85;;;;;;;4.27;80.78;99110.09;5002415;28;20033;-72
2020/12/06 06:23:44;;;;;;;22.67;16.13;;;;;;;4.30;80.89;99117.91;4999689;28;20109;-72
2020/12/06 06:26:11;;;;;;;18.30;13.68;;;;;;;4.34;80.71;99114.38;5000155;28;20112;-71
2020/12/06 06:28:37;;;;;;;20.75;14.52;;;;;;;4.38;80.49;99113.53;5003203;28;20034;-71
2020/12/06 06:31:03;;;;;;;22.83;15.93;;;;;;;4.42;80.84;99114.38;5001887;28;20061;-71
2020/12/06 06:33:29;;;;;;;18.77;13.90;;;;;;;4.45;80.46;99106.50;5003089;28;20401;-71
2020/12/06 06:35:56;;;;;;;20.30;14.80;;;;;;;4.49;80.62;99102.16;4981933;28;20038;-71
2020/12/06 06:38:21;;;;;;;19.42;14.43;;;;;;;4.54;81.01;99103.00;5001408;28;20558;-71
2020/12/06 06:40:50;;;;;;;21.52;15.25;;;;;;;4.58;81.01;99110.84;5003372;28;20045;-71
2020/12/06 06:43:18;;;;;;;21.58;15.32;;;;;;;4.62;80.27;99116.91;5007377;28;20038;-71
2020/12/06 06:45:44;;;;;;;21.77;16.15;;;;;;;4.66;80.43;99112.50;4999843;28;20030;-71
2020/12/06 06:48:16;;;;;;;22.75;16.02;;;;;;;4.65;80.40;99110.78;5000344;28;20074;-72
2020/12/06 06:50:42;;;;;;;19.55;14.95;;;;;;;4.66;80.53;99113.38;4985679;28;20488;-71
2020/12/06 06:53:09;;;;;;;19.10;14.07;;;;;;;4.67;80.83;99107.28;5002798;28;20080;-71
2020/12/06 06:55:49;;;;;;;22.05;16.40;;;;;;;4.65;80.71;99106.44;4984775;28;20415;-71
2020/12/06 06:58:16;;;;;;;21.35;15.70;;;;;;;4.66;80.63;99105.53;5002498;28;20039;-71
2020/12/06 07:00:42;;;;;;;23.15;15.68;;;;;;;4.68;80.80;99116.84;5003148;28;20042;-71
2020/12/06 07:03:11;;;;;;;20.85;15.18;;;;;;;4.68;80.69;99119.47;5000877;28;20132;-71
2020/12/06 07:05:37;;;;;;;18.80;14.30;;;;;;;4.71;80.99;99126.44;5002375;28;20038;-72
2020/12/06 07:08:10;;;;;;;19.95;15.43;;;;;;;4.74;80.86;99136.88;5003071;28;20105;-71
2020/12/06 07:10:38;;;;;;;21.60;15.65;;;;;;;4.77;80.59;99142.09;4999663;28;20042;-71
2020/12/06 07:13:05;;;;;;;19.73;14.48;;;;;;;4.81;80.84;99146.41;4981805;28;20125;-71
2020/12/06 07:15:31;;;;;;;20.02;14.88;;;;;;;4.83;80.80;99153.38;4999518;28;20042;-71
2020/12/06 07:17:57;;;;;;;21.50;14.75;;;;;;;4.89;80.60;99172.53;4999592;28;20045;-72
2020/12/06 07:20:24;;;;;;;19.80;14.55;;;;;;;4.92;80.80;99172.50;5001543;28;20049;-72
2020/12/06 07:22:52;;;;;;;23.73;15.30;;;;;;;4.97;80.36;99174.22;5002769;28;20029;-71
2020/12/06 07:25:18;;;;;;;20.17;15.35;;;;;;;5.02;80.22;99174.19;4995331;28;20022;-72
2020/12/06 07:27:45;;;;;;;20.80;17.08;;;;;;;5.07;80.49;99175.03;5001695;28;20042;-71
2020/12/06 07:30:12;;;;;;;21.48;16.10;;;;;;;5.13;80.47;99180.22;5007145;28;20453;-71
2020/12/06 07:32:38;;;;;;;19.42;15.13;;;;;;;5.16;79.93;99180.25;4998715;28;20117;-71
2020/12/06 07:35:05;;;;;;;21.17;15.30;;;;;;;5.21;79.91;99178.47;4999500;28;20034;-71
2020/12/06 07:37:31;;;;;;;22.42;16.45;;;;;;;5.28;80.04;99176.66;5004645;28;20041;-71
2020/12/06 07:39:56;;;;;;;21.85;16.13;;;;;;;5.32;nan;99174.88;5006478;28;20154;-72
2020/12/06 07:42:24;;;;;;;20.55;15.43;;;;;;;5.37;79.97;99168.75;5003953;28;20068;-71
2020/12/06 07:44:52;;;;;;;20.25;15.68;;;;;;;5.43;79.75;99176.56;5002840;28;20034;-71
2020/12/06 07:47:18;;;;;;;19.13;14.38;;;;;;;5.49;79.98;99176.50;5004482;28;20197;-71
2020/12/06 07:49:48;;;;;;;18.70;15.25;;;;;;;5.56;79.75;99176.47;5007254;28;20612;-71
2020/12/06 07:52:20;;;;;;;21.33;15.52;;;;;;;5.64;79.60;99178.16;5004576;28;20095;-72
2020/12/06 07:55:00;;;;;;;21.45;15.20;;;;;;;5.70;79.93;99180.72;5008340;28;20042;-71
2020/12/06 07:57:37;;;;;;;22.83;16.38;;;;;;;5.76;79.42;99171.06;5003139;28;20046;-72
2020/12/06 08:00:08;;;;;;;23.42;17.30;;;;;;;5.82;79.35;99178.88;4985018;28;20038;-72
2020/12/06 08:02:36;;;;;;;23.30;17.45;;;;;;;5.85;79.19;99178.84;5004597;28;20057;-71
2020/12/06 08:05:02;;;;;;;17.50;14.65;;;;;;;5.87;79.07;99177.97;4997701;28;20034;-71
2020/12/06 08:07:38;;;;;;;22.02;15.73;;;;;;;5.91;79.77;99178.78;5001456;28;20491;-70
2020/12/06 08:10:09;;;;;;;19.15;14.30;;;;;;;5.98;79.34;99180.50;5004739;28;20030;-71
2020/12/06 08:12:36;;;;;;;22.95;17.02;;;;;;;6.06;79.47;99178.69;5003076;28;20092;-71
2020/12/06 08:15:04;;;;;;;22.33;17.63;;;;;;;6.15;79.26;99172.47;5004001;28;20546;-71
2020/12/06 08:17:43;;;;;;;23.95;16.83;;;;;;;6.24;79.36;99176.78;5003334;28;20081;-72
2020/12/06 08:20:13;;;;;;;21.70;16.38;;;;;;;6.33;79.38;99171.44;5003382;28;20045;-72
2020/12/06 08:22:56;;;;;;;22.13;15.50;;;;;;;6.42;79.35;99160.88;5003908;28;20080;-71
2020/12/06 08:25:27;;;;;;;19.55;15.30;;;;;;;6.49;79.24;99159.03;4986565;28;20481;-71
2020/12/06 08:27:54;;;;;;;23.00;15.90;;;;;;;6.57;79.07;99158.03;5002070;28;20045;-70
2020/12/06 08:30:22;;;;;;;24.52;16.70;;;;;;;6.61;78.72;99152.78;5008433;28;20409;-71
2020/12/06 08:33:02;;;;;;;21.00;14.60;;;;;;;6.64;78.75;99140.50;5004190;28;20038;-71
2020/12/06 08:35:48;;;;;;;20.80;15.75;;;;;;;6.68;78.89;99136.06;5003089;28;20045;-71
2020/12/06 08:38:19;;;;;;;21.67;15.63;;;;;;;6.75;78.63;99133.34;4988114;28;20046;-71
2020/12/06 08:41:04;;;;;;;19.40;15.18;;;;;;;6.79;78.29;99135.06;5004076;28;20040;-71
2020/12/06 08:43:52;;;;;;;19.40;15.18;;;;;;;6.86;78.48;99141.06;5003978;28;20484;-71
2020/12/06 08:46:23;;;;;;;21.20;16.23;;;;;;;6.95;78.37;99134.84;5004171;28;20049;-70
2020/12/06 08:48:50;;;;;;;22.27;16.80;;;;;;;7.02;77.94;99129.50;5002075;28;20072;-71
2020/12/06 08:51:33;;;;;;;20.42;15.38;;;;;;;7.07;78.03;99128.56;5002445;28;20463;-70
2020/12/06 08:54:00;;;;;;;24.10;17.02;;;;;;;7.14;78.31;99117.94;5002549;28;20045;-71
2020/12/06 08:56:43;;;;;;;20.20;15.43;;;;;;;7.17;77.81;99114.41;5002318;28;20039;-70
2020/12/06 08:59:15;;;;;;;25.23;16.58;;;;;;;7.22;77.70;99107.34;5002318;28;20038;-71
2020/12/06 09:01:50;;;;;;;20.80;16.15;;;;;;;7.29;77.65;99102.88;5002690;28;20508;-72
2020/12/06 09:04:16;;;;;;;19.83;16.20;;;;;;;7.34;77.55;99101.91;5001887;28;20037;-71
2020/12/06 09:06:42;;;;;;;19.73;15.43;;;;;;;7.42;77.56;99100.03;5005640;28;20038;-72
2020/12/06 09:09:07;;;;;;;21.35;15.88;;;;;;;7.45;77.72;99089.47;5001497;28;20022;-71
2020/12/06 09:11:33;;;;;;;19.42;14.60;;;;;;;7.52;77.67;99094.59;5001157;28;20070;-72
2020/12/06 09:13:58;;;;;;;19.83;14.90;;;;;;;7.57;77.09;99087.53;4979155;28;20031;-71
2020/12/06 09:16:24;;;;;;;21.67;16.77;;;;;;;7.63;77.20;99082.19;5001094;28;20041;-72
2020/12/06 09:18:49;;;;;;;20.55;15.63;;;;;;;7.72;76.81;99083.78;5000538;28;20113;-71
2020/12/06 09:21:15;;;;;;;20.70;15.48;;;;;;;7.80;76.87;99074.84;5003007;28;20030;-71
2020/12/06 09:23:40;;;;;;;21.40;15.32;;;;;;;7.86;76.78;99066.88;5000916;28;20031;-72
2020/12/06 09:26:06;;;;;;;18.90;15.23;;;;;;;7.93;76.50;99065.00;4979464;28;20117;-72
2020/12/06 09:28:33;;;;;;;22.40;16.23;;;;;;;7.97;76.54;99071.06;5000206;28;20074;-70
2020/12/06 09:30:59;;;;;;;19.25;14.40;;;;;;;8.08;76.50;99077.84;5003965;28;20551;-71
2020/12/06 09:33:24;;;;;;;21.27;15.40;;;;;;;8.19;76.08;99080.25;5002860;28;20030;-71
2020/12/06 09:35:50;;;;;;;18.73;14.32;;;;;;;8.28;75.75;99076.59;5004212;28;20037;-71
2020/12/06 09:38:15;;;;;;;17.05;13.80;;;;;;;8.37;75.37;99072.91;4985427;28;20042;-71
2020/12/06 09:40:41;;;;;;;20.23;15.27;;;;;;;8.48;75.67;99074.44;4997346;28;20038;-71
2020/12/06 09:43:06;;;;;;;20.27;14.18;;;;;;;8.55;75.28;99081.31;5003626;28;20033;-71
2020/12/06 09:45:33;;;;;;;20.52;15.32;;;;;;;8.65;75.37;99086.38;5000499;28;20062;-71
2020/12/06 09:47:58;;;;;;;19.65;13.48;;;;;;;8.70;75.14;99089.78;4999478;28;20050;-71
2020/12/06 09:50:23;;;;;;;18.92;13.95;;;;;;;8.72;75.04;99102.00;5001429;28;20044;-70
2020/12/06 09:52:49;;;;;;;17.35;13.70;;;;;;;8.72;74.65;99109.91;5000188;28;20516;-71
2020/12/06 09:55:14;;;;;;;18.48;14.18;;;;;;;8.71;74.69;99116.03;5001441;28;20148;-70
2020/12/06 09:57:39;;;;;;;17.80;13.82;;;;;;;8.74;74.63;99113.34;5003800;28;20036;-71
2020/12/06 10:00:05;;;;;;;16.88;13.65;;;;;;;8.70;74.16;99110.81;4984839;28;20041;-70
2020/12/06 10:02:36;;;;;;;17.42;13.93;;;;;;;8.85;74.17;99115.72;5005973;28;20038;-70
2020/12/06 10:05:02;;;;;;;17.20;13.77;;;;;;;9.03;73.93;99103.06;4999372;28;20038;-71
2020/12/06 10:07:27;;;;;;;17.20;13.98;;;;;;;9.28;73.43;99111.28;5001373;28;20037;-71
2020/12/06 10:09:52;;;;;;;17.02;12.55;;;;;;;9.54;72.62;99106.25;5002467;28;20034;-71
2020/12/06 10:12:18;;;;;;;16.92;12.95;;;;;;;9.79;71.79;99100.34;5001825;28;20044;-71
2020/12/06 10:14:44;;;;;;;15.40;12.68;;;;;;;9.99;71.58;99100.69;5000366;28;20030;-71
2020/12/06 10:17:09;;;;;;;17.23;12.63;;;;;;;10.12;71.24;99095.97;5000694;28;20034;-71
2020/12/06 10:19:34;;;;;;;17.50;13.27;;;;;;;10.20;70.72;99090.47;5003476;28;20091;-70
2020/12/06 10:22:00;;;;;;;18.30;13.98;;;;;;;10.18;70.73;99092.28;5003688;28;20060;-71
2020/12/06 10:24:25;;;;;;;17.25;14.27;;;;;;;10.10;70.68;99085.44;5000612;28;20034;-71
2020/12/06 10:26:52;;;;;;;19.13;14.40;;;;;;;10.14;70.64;99080.09;5000110;28;20089;-70
2020/12/06 10:29:18;;;;;;;15.82;13.63;;;;;;;10.17;70.60;99080.03;5001094;28;20058;-71
2020/12/06 10:31:43;;;;;;;15.60;12.98;;;;;;;10.22;70.10;99070.22;5003485;28;20127;-71
2020/12/06 10:34:08;;;;;;;18.52;12.77;;;;;;;10.24;70.67;99071.03;4985389;28;20496;-71
2020/12/06 10:36:33;;;;;;;15.35;12.13;;;;;;;10.26;70.58;99067.44;5000084;28;20718;-69
2020/12/06 10:38:59;;;;;;;16.63;12.52;;;;;;;10.30;69.95;99082.31;4999931;28;20065;-71
2020/12/06 10:41:24;;;;;;;17.38;12.15;;;;;;;10.36;69.46;99080.41;5002293;28;20082;-71
2020/12/06 10:43:49;;;;;;;16.63;11.52;;;;;;;10.42;69.63;99077.59;5003045;28;20081;-70
2020/12/06 10:46:15;;;;;;;15.88;12.65;;;;;;;10.47;68.69;99071.25;5002272;28;20062;-70
2020/12/06 10:48:40;;;;;;;16.50;12.70;;;;;;;10.52;68.20;99069.34;4999859;28;20073;-71
2020/12/06 10:51:05;;;;;;;15.85;11.80;;;;;;;10.65;68.76;99076.91;4999967;28;20096;-72
2020/12/06 10:53:31;;;;;;;15.50;12.02;;;;;;;10.71;68.14;99067.03;5002952;28;20528;-71
2020/12/06 10:55:56;;;;;;;14.68;12.15;;;;;;;10.81;68.50;99061.50;5003147;28;20378;-68
2020/12/06 10:58:21;;;;;;;15.65;12.30;;;;;;;10.85;67.84;99064.00;5002183;28;20606;-69
2020/12/06 11:00:47;;;;;;;17.25;12.63;;;;;;;10.88;66.95;99055.97;5012860;28;20045;-69
2020/12/06 11:03:12;;;;;;;15.02;12.32;;;;;;;11.00;67.41;99046.78;5017026;28;20044;-70
2020/12/06 11:05:38;;;;;;;13.95;11.45;;;;;;;11.07;67.74;99047.47;5003143;28;20041;-69
2020/12/06 11:08:04;;;;;;;16.20;11.48;;;;;;;11.12;67.07;99042.91;5002987;28;20038;-69
2020/12/06 11:10:29;;;;;;;15.00;11.70;;;;;;;11.12;67.39;99048.19;5000325;28;20057;-68
2020/12/06 11:12:54;;;;;;;14.88;11.93;;;;;;;11.14;66.99;99046.38;5003767;28;20038;-69
2020/12/06 11:15:20;;;;;;;13.13;11.07;;;;;;;11.19;67.35;99047.94;5014690;28;20037;-68
2020/12/06 11:17:45;;;;;;;16.95;12.70;;;;;;;11.25;67.37;99051.31;5008562;28;20045;-69
2020/12/06 11:20:10;;;;;;;16.48;12.32;;;;;;;11.24;67.52;99050.44;5006022;28;20030;-69
2020/12/06 11:22:35;;;;;;;13.43;10.95;;;;;;;11.28;66.75;99056.50;5003207;28;20045;-69
2020/12/06 11:25:01;;;;;;;15.63;12.27;;;;;;;11.28;66.75;99052.06;5003222;28;20048;-69